Austin (LCRA Redbud)'s Hourly Summary for Friday, May 11, 2018
Hour Temp
(f)
RH
(%)
Solar Rad.
(MJ/m2)
Rainfall
(in)
Wind
(mph)
5/11/2018 12:00 AM 74 73 0 0 0.4
5/11/2018 1:00 AM 72 78 0 0 0.4
5/11/2018 2:00 AM 71 81 0 0 0.4
5/11/2018 3:00 AM 70 83 0 0 0.4
5/11/2018 4:00 AM 71 83 0 0 0.4
5/11/2018 5:00 AM 71 81 0 0 0.4
5/11/2018 6:00 AM 70 81 0 0 0.4
5/11/2018 7:00 AM 70 81 0.01 0 0.4
5/11/2018 8:00 AM 72 80 0.21 0 0.4
5/11/2018 9:00 AM 75 76 0.62 0 0.4
5/11/2018 10:00 AM 78 66 1.66 0 0.4
5/11/2018 11:00 AM 81 57 2.37 0 0.4
5/11/2018 12:00 PM 82 51 2.96 0 0.4
5/11/2018 1:00 PM 84 44 3.01 0 0.4
5/11/2018 2:00 PM 86 42 3.1 0 0.4
5/11/2018 3:00 PM 87 38 3.33 0 0.4
5/11/2018 4:00 PM 88 34 2.98 0 0.4
5/11/2018 5:00 PM 88 34 2.45 0 0.4
5/11/2018 6:00 PM 88 35 1.64 0 0.4
5/11/2018 7:00 PM 87 35 0.9 0 0.4
5/11/2018 8:00 PM 85 43 0.14 0 0.4
5/11/2018 9:00 PM 82 49 0 0 0.4
5/11/2018 10:00 PM 79 61 0 0 0.4
5/11/2018 11:00 PM 77 71 0 0 0.4
Data Summary 78 60 25.38 0.00 0.40